Norton, KS

5:43 AM CDT on July 23, 2016 (GMT -0500)
by sebelius lake | | Change Station
Active Advisory: Heat Advisory

Elev 2418 ft 39.83 °N, 99.97 °W | Updated 3 minutes ago

Rain
Rain
70.4 °F
Feels Like 70.4 °F
N
10.0
Wind Variable Wind from SE
Gusts 14.0 mph

Today
High -- | Low -- °F
--% Chance of Precip.
Yesterday
High -- | Low -- °F
Precip. -- in
Pressure 29.88 in
Visibility 10.0 miles
Clouds Scattered Clouds 12000 ft
Dew Point 68 °F
Humidity 91%
Rainfall 0.17 in
Snow Depth Not available.
6:30 AM 9:00 PM
Waning Gibbous, 86% visible
METAR KHLC 230953Z AUTO 12004KT 10SM SCT120 23/19 A2997 RMK AO2 RAB27E47 SLP117 P0000 T02330194 TSNO
Pressure 29.88 in
Visibility 10.0 miles
Clouds Scattered Clouds 12000 ft
Dew Point 68 °F
Humidity 91%
Rainfall 0.17 in
Snow Depth Not available.
6:30 AM 9:00 PM
Waning Gibbous, 86% visible
METAR KHLC 230953Z AUTO 12004KT 10SM SCT120 23/19 A2997 RMK AO2 RAB27E47 SLP117 P0000 T02330194 TSNO

10-Day Weather Forecast

Almanac

Astronomy

Jul. 23, 2016 Rise Set
Actual Time
Civil Twilight
Nautical Twilight
Astronomical Twilight
Moon
Length of Visible Light
Length of Day
Tomorrow will be .
, % of the Moon is Illuminated

Today's Extremes

State Highs State Lows

Community

WunderPhotos

Upload Photos

1,926,793 photos uploaded!

WunderBlog® & News

Nearby

Air Quality

  Air Quality AQ Index Pollutant
Not available.

Snow Depth

Station Depth Elevation

Earthquake Activity

City Distance Mag. Time & Date
Minimum magnitude displayed is 2.5.

Coastal Water Temperatures

Place Temperature

Stations

Nearby Weather Stations

Station Location Temp. Windchill Dew Point Humidity Wind Precip. Elev Updated Type
                   

Watches & Warnings

Heat Advisory
Issued: 11:29 PM CDT Jul. 22, 2016 – National Weather Service

... Heat advisory remains in effect until 8 PM CDT Saturday...

* heat index values... up to 105 due to temperatures around 100... and
dewpoints in the lower 60s.

* Timing/duration... heat index values will be the highest
between 1 PM CDT and 6 PM CDT.

Precautionary/preparedness actions...

Take extra precautions if you work or spend time outside. When
possible... reschedule strenuous activities to early morning or
evening. Know the signs and symptoms of heat exhaustion and heat
stroke. Wear light weight and loose fitting clothing when
possible and drink plenty of water.

To reduce risk during outdoor work... the occupational safety and
health administration recommends scheduling frequent rest breaks
in shaded or air conditioned environments. Anyone overcome by
heat should be moved into a cool and shaded location. Heat stroke
is an emergency... call 9 1 1.